Latest Coastal Weather Observations for Wilsons Promontory

IDT60701

Issued at 6:52 pm EDT Friday 30 January 2015 (issued every 10 minutes, with the page automatically refreshed every 10 minutes)

About coastal observations | Map of coastal stations | Coastal observations for TAS | Marine services | Other Formats
Station Details ID: 085096 Name: WILSONS PROMONTORY LIGHTHOUSE Lat: -39.13 Lon: 146.42 Height: 95.0 m
Data from the previous 72 hours. | See also: Recent months at Wilsons Promontory
Date/Time
EDT
Temp

°C
Wind Pressure Rain
since 9am
mm
Weather Cloud Vis
km
Sea
Height
m
Swell
Dir
 
Speed
knots
Gust
knots
hPa Trend Height
m
Period
s
Dir
30/06:30pm 15.8 SW 19 23 1012.2 - 0.0 - - - - - - -
30/06:00pm 15.9 SW 18 23 1012.2 - 0.0 - - - - - - -
30/05:40pm 15.7 SW 15 25 1012.5 - 0.0 - - - - - - -
30/05:30pm 15.8 SW 21 26 1012.5 - 0.0 - - - - - - -
30/05:21pm 15.9 SW 16 26 1012.6 - 0.0 - - - - - - -
30/05:00pm 15.7 W 12 19 1012.7 - 0.0 - - - - - - -
30/04:37pm 16.0 SW 15 25 1012.9 - 0.0 - - - - - - -
30/04:30pm 15.9 SW 14 24 1012.9 - 0.0 - - - - - - -
30/04:00pm 16.1 SW 8 16 1013.6 - 0.0 - - - - - - -
30/03:30pm 16.0 W 8 14 1013.7 - 0.0 - - - - - - -
30/03:00pm 16.0 W 7 12 1013.6 - 0.0 - - - - - - -
30/02:30pm 16.4 SW 12 16 1014.1 - 0.0 - - - - - - -
30/02:00pm 16.7 SW 8 15 1014.3 - 0.0 - - - - - - -
30/01:30pm 16.5 SW 9 14 1014.5 - 0.0 - - - - - - -
30/01:00pm 17.0 SW 10 14 1014.7 - 0.0 - - - - - - -
30/12:30pm 16.9 SW 5 8 1014.9 - 0.0 - - - - - - -
30/12:00pm 15.7 N 5 9 1015.1 - 0.0 - - - - - - -
30/11:30am 15.6 SSW 7 11 1015.4 - 0.0 - - - - - - -
30/11:00am 14.9 SW 7 11 1015.6 - 0.0 - - - - - - -
30/10:30am 14.8 S 10 15 1015.7 - 0.0 - - - - - - -
30/10:00am 14.9 SSE 13 18 1015.8 - 0.0 - - - - - - -
30/09:30am 15.0 S 8 18 1015.8 - 0.0 - - - - - - -
30/09:00am 14.6 SSE 15 19 1015.7 - 1.4 - - - - - - -
30/08:30am 14.9 SSE 16 20 1015.8 - 1.4 - - - - - - -
30/08:00am 14.6 SSE 15 19 1015.7 - 1.4 - - - - - - -
30/07:30am 14.5 SSE 16 21 1015.6 - 1.4 - - - - - - -
30/07:00am 14.3 SSE 16 21 1015.5 - 1.4 - - - - - - -
30/06:30am 14.2 SSE 15 19 1015.6 - 1.4 - - - - - - -
30/06:00am 14.1 SSE 20 25 1015.2 - 1.4 - - - - - - -
30/05:30am 14.2 SSE 16 21 1015.4 - 1.4 - - - - - - -
30/05:00am 14.3 SSE 17 22 1015.7 - 1.4 - - - - - - -
30/04:30am 14.5 SSE 18 23 1015.9 - 1.4 - - - - - - -
30/04:00am 14.7 SE 20 24 1016.1 - 1.4 - - - - - - -
30/03:30am 14.6 SSE 19 22 1016.3 - 1.4 - - - - - - -
30/03:00am 14.8 SSE 16 20 1016.4 - 1.4 - - - - - - -
30/02:30am 14.1 SE 11 19 1017.0 - 1.4 - - - - - - -
30/02:00am 14.1 SSE 21 30 1016.9 - 1.4 - - - - - - -
30/01:58am 14.4 SSE 18 21 1017.1 - 1.4 - - - - - - -
30/01:30am 13.8 S 6 10 1017.3 - 1.4 - - - - - - -
30/01:00am 13.4 SSE 5 8 1017.9 - 1.4 - - - - - - -
30/12:30am 13.4 SE 20 24 1018.2 - 1.4 - - - - - - -
30/12:00am 13.4 SSE 17 21 1018.3 - 1.0 - - - - - - -
 
Date/Time
EDT
Temp

°C
Wind Pressure Rain
since 9am
mm
Weather Cloud Vis
km
Sea
Height
m
Swell
Dir
 
Speed
knots
Gust
knots
hPa Trend Height
m
Period
s
Dir
29/11:49pm 13.4 SSE 21 31 1018.6 - 0.6 - - - - - - -
29/11:41pm 14.5 SSE 22 27 1018.6 - 0.2 - - - - - - -
29/11:37pm 14.8 ESE 15 27 1018.6 - 0.2 - - - - - - -
29/11:30pm 14.5 ESE 16 22 1018.5 - 0.2 - - - - - - -
29/11:12pm 14.5 SE 15 25 1018.8 - 0.0 - - - - - - -
29/11:00pm 15.6 ESE 16 24 1018.6 - 0.0 - - - - - - -
29/10:30pm 15.7 ESE 12 15 1018.8 - 0.0 - - - - - - -
29/10:00pm 15.7 ESE 16 19 1018.9 - 0.0 - - - - - - -
29/09:30pm 15.8 ESE 15 18 1018.9 - 0.0 - - - - - - -
29/09:00pm 15.8 ESE 13 16 1018.7 - 0.0 - - - - - - -
29/08:30pm 15.8 ESE 15 18 1018.8 - 0.0 - - - - - - -
29/08:00pm 15.8 ESE 15 19 1018.8 - 0.0 - - - - - - -
29/07:30pm 15.8 ESE 15 19 1018.9 - 0.0 - - - - - - -
29/07:00pm 15.8 SE 18 21 1018.9 - 0.0 - - - - - - -
29/06:30pm 15.9 ESE 15 19 1018.9 - 0.0 - - - - - - -
29/06:00pm 16.0 SE 18 21 1018.9 - 0.0 - - - - - - -
29/05:30pm 16.0 SE 19 24 1019.4 - 0.0 - - - - - - -
29/05:00pm 16.3 SE 18 22 1019.5 - 0.0 - - - - - - -
29/04:30pm 16.2 SE 19 23 1019.7 - 0.0 - - - - - - -
29/04:00pm 16.2 SE 21 24 1019.8 - 0.0 - - - - - - -
29/03:30pm 16.6 SE 18 23 1019.9 - 0.0 - - - - - - -
29/03:00pm 16.3 SE 20 24 1019.9 - 0.0 - - - - - - -
29/02:30pm 16.0 SSE 21 24 1020.3 - 0.0 - - - - - - -
29/02:00pm 16.0 SSE 20 24 1020.4 - 0.0 - - - - - - -
29/01:30pm 16.0 SSE 20 25 1020.5 - 0.0 - - - - - - -
29/01:00pm 15.8 SSE 21 27 1020.8 - 0.0 - - - - - - -
29/12:30pm 15.7 SSE 22 26 1020.9 - 0.0 - - - - - - -
29/12:00pm 15.8 SE 22 26 1020.8 - 0.0 - - - - - - -
29/11:30am 16.1 SE 22 26 1021.0 - 0.0 - - - - - - -
29/11:00am 16.1 SSE 22 26 1021.0 - 0.0 - - - - - - -
29/10:30am 16.3 SE 21 26 1021.0 - 0.0 - - - - - - -
29/10:00am 16.1 SE 20 25 1021.2 - 0.0 - - - - - - -
29/09:30am 15.5 SE 21 25 1021.1 - 0.0 - - - - - - -
29/09:00am 15.6 SE 22 27 1020.8 - 0.0 - - - - - - -
29/08:30am 15.3 SE 20 23 1020.9 - 0.0 - - - - - - -
29/08:00am 14.7 SE 21 25 1020.8 - 0.0 - - - - - - -
29/07:30am 14.7 SE 21 26 1020.6 - 0.0 - - - - - - -
29/07:00am 14.6 SE 21 25 1020.3 - 0.0 - - - - - - -
29/06:30am 14.7 SE 22 25 1020.0 - 0.0 - - - - - - -
29/06:00am 14.6 SE 21 25 1019.8 - 0.0 - - - - - - -
29/05:30am 14.7 SE 19 23 1019.8 - 0.0 - - - - - - -
29/05:00am 14.7 SE 20 24 1019.9 - 0.0 - - - - - - -
29/04:30am 14.7 ESE 19 23 1019.8 - 0.0 - - - - - - -
29/04:00am 14.9 ESE 19 24 1019.8 - 0.0 - - - - - - -
29/03:30am 14.9 ESE 19 23 1019.9 - 0.0 - - - - - - -
29/03:00am 15.0 ESE 19 23 1020.0 - 0.0 - - - - - - -
29/02:30am 15.0 ESE 18 22 1020.3 - 0.0 - - - - - - -
29/02:00am 15.2 E 19 22 1020.4 - 0.0 - - - - - - -
29/01:30am 15.2 ESE 18 23 1020.6 - 0.0 - - - - - - -
29/01:00am 15.4 ESE 18 22 1020.7 - 0.0 - - - - - - -
29/12:30am 15.5 E 18 21 1021.0 - 0.0 - - - - - - -
29/12:00am 15.6 E 19 22 1020.8 - 0.0 - - - - - - -
 
Date/Time
EDT
Temp

°C
Wind Pressure Rain
since 9am
mm
Weather Cloud Vis
km
Sea
Height
m
Swell
Dir
 
Speed
knots
Gust
knots
hPa Trend Height
m
Period
s
Dir
28/11:30pm 15.7 E 19 22 1021.2 - 0.0 - - - - - - -
28/11:00pm 16.0 E 20 22 1021.4 - 0.0 - - - - - - -
28/10:30pm 15.9 E 19 23 1021.3 - 0.0 - - - - - - -
28/10:00pm 16.0 E 21 24 1021.4 - 0.0 - - - - - - -
28/09:30pm 16.1 E 14 21 1021.2 - 0.0 - - - - - - -
28/09:00pm 15.5 ENE 13 17 1021.0 - 0.0 - - - - - - -
28/08:30pm 15.8 ENE 17 21 1021.0 - 0.0 - - - - - - -
28/08:00pm 15.9 ENE 17 20 1020.7 - 0.0 - - - - - - -
28/07:30pm 15.9 ENE 17 20 1020.6 - 0.0 - - - - - - -
28/07:00pm 16.2 E 16 19 1020.3 - 0.0 - - - - - - -
28/06:30pm 16.4 E 16 19 1020.3 - 0.0 - - - - - - -
28/06:00pm 16.9 E 18 21 1020.1 - 0.0 - - - - - - -
28/05:30pm 17.2 ESE 15 19 1020.6 - 0.0 - - - - - - -
28/05:00pm 16.5 ESE 16 19 1020.7 - 0.0 - - - - - - -
28/04:30pm 17.1 ESE 15 19 1020.7 - 0.0 - - - - - - -
28/04:00pm 17.1 ESE 16 19 1020.8 - 0.0 - - - - - - -
28/03:30pm 16.9 ESE 17 19 1020.8 - 0.0 - - - - - - -
28/03:00pm 17.0 ESE 16 19 1020.6 - 0.0 - - - - - - -
28/02:30pm 16.9 ESE 17 20 1020.9 - 0.0 - - - - - - -
28/02:00pm 17.0 ESE 17 21 1021.1 - 0.0 - - - - - - -
28/01:30pm 17.0 ESE 17 20 1021.2 - 0.0 - - - - - - -
28/01:00pm 16.9 ESE 17 20 1021.2 - 0.0 - - - - - - -
28/12:30pm 16.8 ESE 18 22 1020.8 - 0.0 - - - - - - -
28/12:00pm 17.8 E 17 21 1020.6 - 0.0 - - - - - - -
28/11:30am 17.8 ESE 17 21 1020.9 - 0.0 - - - - - - -
28/11:00am 17.5 E 19 21 1020.8 - 0.0 - - - - - - -
28/10:30am 17.6 E 19 22 1020.5 - 0.0 - - - - - - -
28/10:00am 17.8 E 20 22 1020.4 - 0.0 - - - - - - -
28/09:30am 16.7 E 21 25 1020.3 - 0.0 - - - - - - -
28/09:00am 16.9 E 20 24 1020.0 - 0.0 - - - - - - -
28/08:30am 17.0 E 18 22 1019.9 - 0.0 - - - - - - -
28/08:00am 17.0 E 17 21 1019.5 - 0.0 - - - - - - -
28/07:30am 16.5 E 18 21 1019.0 - 0.0 - - - - - - -
28/07:00am 16.2 E 18 20 1018.7 - 0.0 - - - - - - -
28/06:30am 15.5 E 17 21 1018.3 - 0.0 - - - - - - -
28/06:00am 15.7 E 15 19 1018.0 - 0.0 - - - - - - -
28/05:30am 15.3 E 11 13 1017.9 - 0.0 - - - - - - -
28/05:00am 15.0 E 11 13 1017.8 - 0.0 - - - - - - -
28/04:30am 14.9 E 12 15 1017.5 - 0.0 - - - - - - -
28/04:00am 14.9 E 14 16 1017.6 - 0.0 - - - - - - -
28/03:30am 14.8 E 12 15 1017.6 - 0.0 - - - - - - -
28/03:00am 14.6 ENE 7 11 1017.6 - 0.0 - - - - - - -
28/02:30am 14.3 ENE 6 8 1017.7 - 0.0 - - - - - - -
28/02:00am 14.3 NE 6 6 1017.9 - 0.0 - - - - - - -
28/01:30am 14.1 NNE 7 8 1017.9 - 0.0 - - - - - - -
28/01:00am 14.1 NNE 7 8 1017.9 - 0.0 - - - - - - -
28/12:30am 14.5 NNE 5 6 1018.0 - 0.0 - - - - - - -
28/12:00am 14.5 NNE 5 7 1017.7 - 0.0 - - - - - - -
 
Date/Time
EDT
Temp

°C
Wind Pressure Rain
since 9am
mm
Weather Cloud Vis
km
Sea
Height
m
Swell
Dir
 
Speed
knots
Gust
knots
hPa Trend Height
m
Period
s
Dir
27/11:30pm 14.6 N 3 4 1017.9 - 0.0 - - - - - - -
27/11:00pm 14.7 NW 4 5 1018.2 - 0.0 - - - - - - -
27/10:30pm 15.1 WNW 5 7 1018.1 - 0.0 - - - - - - -
27/10:00pm 15.0 W 6 8 1017.9 - 0.0 - - - - - - -
27/09:30pm 15.1 W 5 8 1017.8 - 0.0 - - - - - - -
27/09:00pm 15.3 WSW 7 12 1017.3 - 0.0 - - - - - - -
27/08:30pm 15.5 SW 12 15 1017.3 - 0.0 - - - - - - -
27/08:00pm 15.8 WSW 12 16 1017.0 - 0.0 - - - - - - -
27/07:30pm 16.0 WSW 12 17 1016.7 - 0.0 - - - - - - -
27/07:00pm 16.0 WSW 14 18 1016.5 - 0.0 - - - - - - -

Other Formats:

Comma delimited format used in spreadsheet applications
http://www.bom.gov.au/fwo/IDT60701/IDT60701.94893.axf

JavaScript Object Notation format (JSON) in row-major order
http://www.bom.gov.au/fwo/IDT60701/IDT60701.94893.json